sensor_id;sensor_type;location;lat;lon;timestamp;temperature;humidity
21035;DHT22;10676;50.848;3.272;2024-02-15T00:00:50;14.40;99.90
21035;DHT22;10676;50.848;3.272;2024-02-15T00:03:16;14.40;99.90
21035;DHT22;10676;50.848;3.272;2024-02-15T00:05:46;14.40;99.90
21035;DHT22;10676;50.848;3.272;2024-02-15T00:08:13;14.40;99.90
21035;DHT22;10676;50.848;3.272;2024-02-15T00:10:43;14.40;99.90
21035;DHT22;10676;50.848;3.272;2024-02-15T00:13:16;14.40;99.90
21035;DHT22;10676;50.848;3.272;2024-02-15T00:15:42;14.40;99.90
21035;DHT22;10676;50.848;3.272;2024-02-15T00:18:08;14.40;99.90
21035;DHT22;10676;50.848;3.272;2024-02-15T00:20:33;14.40;99.90
21035;DHT22;10676;50.848;3.272;2024-02-15T00:22:59;14.40;99.90
21035;DHT22;10676;50.848;3.272;2024-02-15T00:25:26;14.40;99.90
21035;DHT22;10676;50.848;3.272;2024-02-15T00:27:52;14.40;99.90
21035;DHT22;10676;50.848;3.272;2024-02-15T00:30:19;14.40;99.90
21035;DHT22;10676;50.848;3.272;2024-02-15T00:32:45;14.40;99.90
21035;DHT22;10676;50.848;3.272;2024-02-15T00:35:17;14.40;99.90
21035;DHT22;10676;50.848;3.272;2024-02-15T00:37:44;14.40;99.90
21035;DHT22;10676;50.848;3.272;2024-02-15T00:40:16;14.40;99.90
21035;DHT22;10676;50.848;3.272;2024-02-15T00:42:42;14.30;99.90
21035;DHT22;10676;50.848;3.272;2024-02-15T00:45:20;14.30;99.90
21035;DHT22;10676;50.848;3.272;2024-02-15T00:47:47;14.30;99.90
21035;DHT22;10676;50.848;3.272;2024-02-15T00:50:13;14.30;99.90
21035;DHT22;10676;50.848;3.272;2024-02-15T00:52:38;14.30;99.90
21035;DHT22;10676;50.848;3.272;2024-02-15T00:55:07;14.30;99.90
21035;DHT22;10676;50.848;3.272;2024-02-15T00:57:33;14.30;99.90
21035;DHT22;10676;50.848;3.272;2024-02-15T00:59:59;14.30;99.90
21035;DHT22;10676;50.848;3.272;2024-02-15T01:02:29;14.30;99.90
21035;DHT22;10676;50.848;3.272;2024-02-15T01:04:55;14.30;99.90
21035;DHT22;10676;50.848;3.272;2024-02-15T01:07:22;14.30;99.90
21035;DHT22;10676;50.848;3.272;2024-02-15T01:09:51;14.20;99.90
21035;DHT22;10676;50.848;3.272;2024-02-15T01:12:17;14.30;99.90
21035;DHT22;10676;50.848;3.272;2024-02-15T01:15:11;14.30;99.90
21035;DHT22;10676;50.848;3.272;2024-02-15T01:17:36;14.30;99.90
21035;DHT22;10676;50.848;3.272;2024-02-15T01:20:03;14.30;99.90
21035;DHT22;10676;50.848;3.272;2024-02-15T01:22:29;14.30;99.90
21035;DHT22;10676;50.848;3.272;2024-02-15T01:25:00;14.30;99.90
21035;DHT22;10676;50.848;3.272;2024-02-15T01:27:26;14.30;99.90
21035;DHT22;10676;50.848;3.272;2024-02-15T01:29:55;14.40;99.90
21035;DHT22;10676;50.848;3.272;2024-02-15T01:32:21;14.40;99.90
21035;DHT22;10676;50.848;3.272;2024-02-15T01:34:47;14.40;99.90
21035;DHT22;10676;50.848;3.272;2024-02-15T01:37:13;14.40;99.90
21035;DHT22;10676;50.848;3.272;2024-02-15T01:39:38;14.40;99.90
21035;DHT22;10676;50.848;3.272;2024-02-15T01:42:08;14.40;99.90
21035;DHT22;10676;50.848;3.272;2024-02-15T01:44:34;14.50;99.90
21035;DHT22;10676;50.848;3.272;2024-02-15T01:47:04;14.50;99.90
21035;DHT22;10676;50.848;3.272;2024-02-15T01:49:30;14.50;99.90
21035;DHT22;10676;50.848;3.272;2024-02-15T01:52:00;14.60;99.90
21035;DHT22;10676;50.848;3.272;2024-02-15T01:54:28;14.60;99.90
21035;DHT22;10676;50.848;3.272;2024-02-15T01:56:54;14.60;99.90
21035;DHT22;10676;50.848;3.272;2024-02-15T01:59:22;14.60;99.90
21035;DHT22;10676;50.848;3.272;2024-02-15T02:01:48;14.70;99.90
21035;DHT22;10676;50.848;3.272;2024-02-15T02:04:15;14.70;99.90
21035;DHT22;10676;50.848;3.272;2024-02-15T02:06:41;14.70;99.90
21035;DHT22;10676;50.848;3.272;2024-02-15T02:09:10;14.80;99.90
21035;DHT22;10676;50.848;3.272;2024-02-15T02:11:38;14.80;99.90
21035;DHT22;10676;50.848;3.272;2024-02-15T02:14:04;14.80;99.90
21035;DHT22;10676;50.848;3.272;2024-02-15T02:16:31;14.80;99.90
21035;DHT22;10676;50.848;3.272;2024-02-15T02:18:59;14.80;99.90
21035;DHT22;10676;50.848;3.272;2024-02-15T02:21:26;14.80;99.90
21035;DHT22;10676;50.848;3.272;2024-02-15T02:24:04;14.70;99.90
21035;DHT22;10676;50.848;3.272;2024-02-15T02:26:34;14.70;99.90
21035;DHT22;10676;50.848;3.272;2024-02-15T02:29:15;14.60;99.90
21035;DHT22;10676;50.848;3.272;2024-02-15T02:31:40;14.60;99.90
21035;DHT22;10676;50.848;3.272;2024-02-15T02:34:08;14.50;99.90
21035;DHT22;10676;50.848;3.272;2024-02-15T02:36:35;14.50;99.90
21035;DHT22;10676;50.848;3.272;2024-02-15T02:39:11;14.40;99.90
21035;DHT22;10676;50.848;3.272;2024-02-15T02:41:36;14.40;99.90
21035;DHT22;10676;50.848;3.272;2024-02-15T02:44:02;14.40;99.90
21035;DHT22;10676;50.848;3.272;2024-02-15T02:46:28;14.30;99.90
21035;DHT22;10676;50.848;3.272;2024-02-15T02:48:58;14.20;99.90
21035;DHT22;10676;50.848;3.272;2024-02-15T02:51:24;14.20;99.90
21035;DHT22;10676;50.848;3.272;2024-02-15T02:53:49;14.20;99.90
21035;DHT22;10676;50.848;3.272;2024-02-15T02:56:15;14.20;99.90
21035;DHT22;10676;50.848;3.272;2024-02-15T02:58:41;14.20;99.90
21035;DHT22;10676;50.848;3.272;2024-02-15T03:01:08;14.10;99.90
21035;DHT22;10676;50.848;3.272;2024-02-15T03:03:33;14.10;99.90
21035;DHT22;10676;50.848;3.272;2024-02-15T03:05:59;14.10;99.90
21035;DHT22;10676;50.848;3.272;2024-02-15T03:08:26;14.10;99.90
21035;DHT22;10676;50.848;3.272;2024-02-15T03:10:53;14.10;99.90
21035;DHT22;10676;50.848;3.272;2024-02-15T03:13:18;14.00;99.90
21035;DHT22;10676;50.848;3.272;2024-02-15T03:15:46;14.00;99.90
21035;DHT22;10676;50.848;3.272;2024-02-15T03:18:15;14.00;99.90
21035;DHT22;10676;50.848;3.272;2024-02-15T03:20:41;14.00;99.90
21035;DHT22;10676;50.848;3.272;2024-02-15T03:26:32;13.90;99.90
21035;DHT22;10676;50.848;3.272;2024-02-15T03:29:03;13.90;99.90
21035;DHT22;10676;50.848;3.272;2024-02-15T03:31:29;13.90;99.90
21035;DHT22;10676;50.848;3.272;2024-02-15T03:33:57;13.90;99.90
21035;DHT22;10676;50.848;3.272;2024-02-15T03:36:24;13.90;99.90
21035;DHT22;10676;50.848;3.272;2024-02-15T03:38:50;13.90;99.90
21035;DHT22;10676;50.848;3.272;2024-02-15T03:41:19;13.90;99.90
21035;DHT22;10676;50.848;3.272;2024-02-15T03:43:45;13.90;99.90
21035;DHT22;10676;50.848;3.272;2024-02-15T03:46:13;13.90;99.90
21035;DHT22;10676;50.848;3.272;2024-02-15T03:48:43;13.90;99.90
21035;DHT22;10676;50.848;3.272;2024-02-15T03:51:16;13.90;99.90
21035;DHT22;10676;50.848;3.272;2024-02-15T03:53:47;13.80;99.90
21035;DHT22;10676;50.848;3.272;2024-02-15T03:56:15;13.80;99.90
21035;DHT22;10676;50.848;3.272;2024-02-15T03:58:41;13.80;99.90
21035;DHT22;10676;50.848;3.272;2024-02-15T04:01:07;13.80;99.90
21035;DHT22;10676;50.848;3.272;2024-02-15T04:03:35;13.80;99.90
21035;DHT22;10676;50.848;3.272;2024-02-15T04:06:06;13.80;99.90
21035;DHT22;10676;50.848;3.272;2024-02-15T04:08:31;13.70;99.90
21035;DHT22;10676;50.848;3.272;2024-02-15T04:10:59;13.70;99.90
21035;DHT22;10676;50.848;3.272;2024-02-15T04:13:25;13.70;99.90
21035;DHT22;10676;50.848;3.272;2024-02-15T04:15:50;13.70;99.90
21035;DHT22;10676;50.848;3.272;2024-02-15T04:18:18;13.70;99.90
21035;DHT22;10676;50.848;3.272;2024-02-15T04:20:51;13.70;99.90
21035;DHT22;10676;50.848;3.272;2024-02-15T04:23:17;13.70;99.90
21035;DHT22;10676;50.848;3.272;2024-02-15T04:25:44;13.70;99.90
21035;DHT22;10676;50.848;3.272;2024-02-15T04:28:16;13.70;99.90
21035;DHT22;10676;50.848;3.272;2024-02-15T04:30:42;13.70;99.90
21035;DHT22;10676;50.848;3.272;2024-02-15T04:33:07;13.70;99.90
21035;DHT22;10676;50.848;3.272;2024-02-15T04:35:34;13.70;99.90
21035;DHT22;10676;50.848;3.272;2024-02-15T04:38:00;13.70;99.90
21035;DHT22;10676;50.848;3.272;2024-02-15T04:40:26;13.70;99.90
21035;DHT22;10676;50.848;3.272;2024-02-15T04:42:52;13.70;99.90
21035;DHT22;10676;50.848;3.272;2024-02-15T04:45:21;13.70;99.90
21035;DHT22;10676;50.848;3.272;2024-02-15T04:47:47;13.70;99.90
21035;DHT22;10676;50.848;3.272;2024-02-15T04:50:17;13.70;99.90
21035;DHT22;10676;50.848;3.272;2024-02-15T04:52:45;13.70;99.90
21035;DHT22;10676;50.848;3.272;2024-02-15T04:55:12;13.70;99.90
21035;DHT22;10676;50.848;3.272;2024-02-15T04:57:43;13.70;99.90
21035;DHT22;10676;50.848;3.272;2024-02-15T05:00:09;13.70;99.90
21035;DHT22;10676;50.848;3.272;2024-02-15T05:02:37;13.70;99.90
21035;DHT22;10676;50.848;3.272;2024-02-15T05:05:12;13.70;99.90
21035;DHT22;10676;50.848;3.272;2024-02-15T05:07:38;13.70;99.90
21035;DHT22;10676;50.848;3.272;2024-02-15T05:10:05;13.70;99.90
21035;DHT22;10676;50.848;3.272;2024-02-15T05:12:32;13.70;99.90
21035;DHT22;10676;50.848;3.272;2024-02-15T05:14:59;13.70;99.90
21035;DHT22;10676;50.848;3.272;2024-02-15T05:17:25;13.70;99.90
21035;DHT22;10676;50.848;3.272;2024-02-15T05:19:50;13.60;99.90
21035;DHT22;10676;50.848;3.272;2024-02-15T05:22:17;13.60;99.90
21035;DHT22;10676;50.848;3.272;2024-02-15T05:24:47;13.60;99.90
21035;DHT22;10676;50.848;3.272;2024-02-15T05:27:13;13.60;99.90
21035;DHT22;10676;50.848;3.272;2024-02-15T05:29:39;13.60;99.90
21035;DHT22;10676;50.848;3.272;2024-02-15T05:32:07;13.60;99.90
21035;DHT22;10676;50.848;3.272;2024-02-15T05:34:32;13.60;99.90
21035;DHT22;10676;50.848;3.272;2024-02-15T05:36:59;13.60;99.90
21035;DHT22;10676;50.848;3.272;2024-02-15T05:39:24;13.60;99.90
21035;DHT22;10676;50.848;3.272;2024-02-15T05:41:50;13.70;99.90
21035;DHT22;10676;50.848;3.272;2024-02-15T05:44:16;13.70;99.90
21035;DHT22;10676;50.848;3.272;2024-02-15T05:46:46;13.80;99.90
21035;DHT22;10676;50.848;3.272;2024-02-15T05:49:12;13.80;99.90
21035;DHT22;10676;50.848;3.272;2024-02-15T05:51:43;13.80;99.90
21035;DHT22;10676;50.848;3.272;2024-02-15T05:54:11;13.90;99.90
21035;DHT22;10676;50.848;3.272;2024-02-15T05:56:37;13.90;99.90
21035;DHT22;10676;50.848;3.272;2024-02-15T05:59:02;13.90;99.90
21035;DHT22;10676;50.848;3.272;2024-02-15T06:01:39;13.90;99.90
21035;DHT22;10676;50.848;3.272;2024-02-15T06:04:06;13.90;99.90
21035;DHT22;10676;50.848;3.272;2024-02-15T06:06:34;13.90;99.90
21035;DHT22;10676;50.848;3.272;2024-02-15T06:09:00;13.90;99.90
21035;DHT22;10676;50.848;3.272;2024-02-15T06:11:27;13.90;99.90
21035;DHT22;10676;50.848;3.272;2024-02-15T06:13:53;13.90;99.90
21035;DHT22;10676;50.848;3.272;2024-02-15T06:16:24;13.90;99.90
21035;DHT22;10676;50.848;3.272;2024-02-15T06:18:49;13.90;99.90
21035;DHT22;10676;50.848;3.272;2024-02-15T06:21:15;14.00;99.90
21035;DHT22;10676;50.848;3.272;2024-02-15T06:23:44;14.00;99.90
21035;DHT22;10676;50.848;3.272;2024-02-15T06:26:09;14.00;99.90
21035;DHT22;10676;50.848;3.272;2024-02-15T06:28:36;14.00;99.90
21035;DHT22;10676;50.848;3.272;2024-02-15T06:31:21;14.00;99.90
21035;DHT22;10676;50.848;3.272;2024-02-15T06:34:05;14.10;99.90
21035;DHT22;10676;50.848;3.272;2024-02-15T06:36:55;14.10;99.90
21035;DHT22;10676;50.848;3.272;2024-02-15T06:39:40;14.10;99.90
21035;DHT22;10676;50.848;3.272;2024-02-15T06:44:40;14.10;99.90
21035;DHT22;10676;50.848;3.272;2024-02-15T06:47:06;14.00;99.90
21035;DHT22;10676;50.848;3.272;2024-02-15T06:49:32;14.00;99.90
21035;DHT22;10676;50.848;3.272;2024-02-15T06:51:59;14.00;99.90
21035;DHT22;10676;50.848;3.272;2024-02-15T06:54:27;14.00;99.90
21035;DHT22;10676;50.848;3.272;2024-02-15T06:56:53;13.90;99.90
21035;DHT22;10676;50.848;3.272;2024-02-15T06:59:20;13.90;99.90
21035;DHT22;10676;50.848;3.272;2024-02-15T07:01:51;13.90;99.90
21035;DHT22;10676;50.848;3.272;2024-02-15T07:04:29;13.90;99.90
21035;DHT22;10676;50.848;3.272;2024-02-15T07:06:54;13.90;99.90
21035;DHT22;10676;50.848;3.272;2024-02-15T07:09:23;13.90;99.90
21035;DHT22;10676;50.848;3.272;2024-02-15T07:11:50;13.90;99.90
21035;DHT22;10676;50.848;3.272;2024-02-15T07:14:16;13.90;99.90
21035;DHT22;10676;50.848;3.272;2024-02-15T07:16:49;13.80;99.90
21035;DHT22;10676;50.848;3.272;2024-02-15T07:19:17;13.80;99.90
21035;DHT22;10676;50.848;3.272;2024-02-15T07:21:43;13.70;99.90
21035;DHT22;10676;50.848;3.272;2024-02-15T07:24:09;13.70;99.90
21035;DHT22;10676;50.848;3.272;2024-02-15T07:26:35;13.60;99.90
21035;DHT22;10676;50.848;3.272;2024-02-15T07:29:02;13.60;99.90
21035;DHT22;10676;50.848;3.272;2024-02-15T07:31:31;13.60;99.90
21035;DHT22;10676;50.848;3.272;2024-02-15T07:33:58;13.60;99.90
21035;DHT22;10676;50.848;3.272;2024-02-15T07:36:29;13.60;99.90
21035;DHT22;10676;50.848;3.272;2024-02-15T07:38:55;13.60;99.90
21035;DHT22;10676;50.848;3.272;2024-02-15T07:41:26;13.60;99.90
21035;DHT22;10676;50.848;3.272;2024-02-15T07:43:52;13.60;99.90
21035;DHT22;10676;50.848;3.272;2024-02-15T07:46:20;13.70;99.90
21035;DHT22;10676;50.848;3.272;2024-02-15T07:48:47;13.70;99.90
21035;DHT22;10676;50.848;3.272;2024-02-15T07:51:15;13.80;99.90
21035;DHT22;10676;50.848;3.272;2024-02-15T07:53:41;13.80;99.90
21035;DHT22;10676;50.848;3.272;2024-02-15T07:56:09;13.80;99.90
21035;DHT22;10676;50.848;3.272;2024-02-15T07:58:38;13.90;99.90
21035;DHT22;10676;50.848;3.272;2024-02-15T08:01:05;13.90;99.90
21035;DHT22;10676;50.848;3.272;2024-02-15T08:03:33;13.90;99.90
21035;DHT22;10676;50.848;3.272;2024-02-15T08:06:01;13.90;99.90
21035;DHT22;10676;50.848;3.272;2024-02-15T08:08:30;14.00;99.90
21035;DHT22;10676;50.848;3.272;2024-02-15T08:10:55;14.00;99.90
21035;DHT22;10676;50.848;3.272;2024-02-15T08:13:26;14.00;99.90
21035;DHT22;10676;50.848;3.272;2024-02-15T08:15:55;14.10;99.90
21035;DHT22;10676;50.848;3.272;2024-02-15T08:18:21;14.10;99.90
21035;DHT22;10676;50.848;3.272;2024-02-15T08:20:46;14.10;99.90
21035;DHT22;10676;50.848;3.272;2024-02-15T08:23:12;14.10;99.90
21035;DHT22;10676;50.848;3.272;2024-02-15T08:25:41;14.20;99.90
21035;DHT22;10676;50.848;3.272;2024-02-15T08:28:06;14.20;99.90
21035;DHT22;10676;50.848;3.272;2024-02-15T08:30:36;14.20;99.90
21035;DHT22;10676;50.848;3.272;2024-02-15T08:33:02;14.30;99.90
21035;DHT22;10676;50.848;3.272;2024-02-15T08:35:29;14.40;99.90
21035;DHT22;10676;50.848;3.272;2024-02-15T08:38:00;14.60;99.90
21035;DHT22;10676;50.848;3.272;2024-02-15T08:40:30;14.80;99.90
21035;DHT22;10676;50.848;3.272;2024-02-15T08:42:56;15.00;99.90
21035;DHT22;10676;50.848;3.272;2024-02-15T08:45:22;15.30;99.90
21035;DHT22;10676;50.848;3.272;2024-02-15T08:47:48;15.50;99.90
21035;DHT22;10676;50.848;3.272;2024-02-15T08:50:18;15.70;99.90
21035;DHT22;10676;50.848;3.272;2024-02-15T08:52:44;16.00;99.90
21035;DHT22;10676;50.848;3.272;2024-02-15T08:55:10;16.20;99.90
21035;DHT22;10676;50.848;3.272;2024-02-15T08:57:46;16.40;99.90
21035;DHT22;10676;50.848;3.272;2024-02-15T09:00:12;16.60;99.90
21035;DHT22;10676;50.848;3.272;2024-02-15T09:02:50;16.80;99.90
21035;DHT22;10676;50.848;3.272;2024-02-15T09:05:16;16.90;99.90
21035;DHT22;10676;50.848;3.272;2024-02-15T09:07:46;16.90;99.90
21035;DHT22;10676;50.848;3.272;2024-02-15T09:10:16;17.00;99.90
21035;DHT22;10676;50.848;3.272;2024-02-15T09:12:52;17.00;99.90
21035;DHT22;10676;50.848;3.272;2024-02-15T09:15:18;17.10;99.90
21035;DHT22;10676;50.848;3.272;2024-02-15T09:17:44;17.20;99.90
21035;DHT22;10676;50.848;3.272;2024-02-15T09:20:12;17.20;99.90
21035;DHT22;10676;50.848;3.272;2024-02-15T09:22:50;17.40;99.90
21035;DHT22;10676;50.848;3.272;2024-02-15T09:25:26;17.40;99.90
21035;DHT22;10676;50.848;3.272;2024-02-15T09:27:52;17.50;99.90
21035;DHT22;10676;50.848;3.272;2024-02-15T09:30:21;17.60;99.90
21035;DHT22;10676;50.848;3.272;2024-02-15T09:32:50;17.60;99.90
21035;DHT22;10676;50.848;3.272;2024-02-15T09:35:15;17.60;99.90
21035;DHT22;10676;50.848;3.272;2024-02-15T09:37:46;17.70;99.90
21035;DHT22;10676;50.848;3.272;2024-02-15T09:40:14;17.70;99.90
21035;DHT22;10676;50.848;3.272;2024-02-15T09:42:42;17.70;99.90
21035;DHT22;10676;50.848;3.272;2024-02-15T09:45:11;17.70;99.90
21035;DHT22;10676;50.848;3.272;2024-02-15T09:47:42;17.80;99.90
21035;DHT22;10676;50.848;3.272;2024-02-15T09:50:15;17.80;99.90
21035;DHT22;10676;50.848;3.272;2024-02-15T09:52:54;18.00;99.90
21035;DHT22;10676;50.848;3.272;2024-02-15T09:55:26;18.10;99.90
21035;DHT22;10676;50.848;3.272;2024-02-15T09:57:51;18.30;99.90
21035;DHT22;10676;50.848;3.272;2024-02-15T10:00:18;18.40;99.90
21035;DHT22;10676;50.848;3.272;2024-02-15T10:02:47;18.80;99.90
21035;DHT22;10676;50.848;3.272;2024-02-15T10:05:13;19.30;99.90
21035;DHT22;10676;50.848;3.272;2024-02-15T10:07:39;20.00;99.90
21035;DHT22;10676;50.848;3.272;2024-02-15T10:10:16;20.60;99.90
21035;DHT22;10676;50.848;3.272;2024-02-15T10:13:22;21.40;99.90
21035;DHT22;10676;50.848;3.272;2024-02-15T10:15:47;22.30;99.90
21035;DHT22;10676;50.848;3.272;2024-02-15T10:21:26;22.50;99.90
21035;DHT22;10676;50.848;3.272;2024-02-15T10:24:14;22.30;99.90
21035;DHT22;10676;50.848;3.272;2024-02-15T10:26:45;22.10;99.90
21035;DHT22;10676;50.848;3.272;2024-02-15T10:29:13;22.00;99.90
21035;DHT22;10676;50.848;3.272;2024-02-15T10:31:53;21.90;99.90
21035;DHT22;10676;50.848;3.272;2024-02-15T10:34:20;21.80;99.90
21035;DHT22;10676;50.848;3.272;2024-02-15T10:37:17;21.70;99.90
21035;DHT22;10676;50.848;3.272;2024-02-15T10:39:43;21.70;99.90
21035;DHT22;10676;50.848;3.272;2024-02-15T10:42:09;21.80;99.90
21035;DHT22;10676;50.848;3.272;2024-02-15T10:44:37;21.90;99.90
21035;DHT22;10676;50.848;3.272;2024-02-15T10:47:04;21.80;99.90
21035;DHT22;10676;50.848;3.272;2024-02-15T10:49:33;21.80;99.90
21035;DHT22;10676;50.848;3.272;2024-02-15T10:52:00;21.70;99.90
21035;DHT22;10676;50.848;3.272;2024-02-15T10:57:03;21.50;99.90
21035;DHT22;10676;50.848;3.272;2024-02-15T10:59:32;21.50;99.90
21035;DHT22;10676;50.848;3.272;2024-02-15T11:02:02;21.80;99.90
21035;DHT22;10676;50.848;3.272;2024-02-15T11:04:31;22.00;99.90
21035;DHT22;10676;50.848;3.272;2024-02-15T11:07:00;22.10;99.90
21035;DHT22;10676;50.848;3.272;2024-02-15T11:09:27;22.10;99.90
21035;DHT22;10676;50.848;3.272;2024-02-15T11:11:55;22.00;99.90
21035;DHT22;10676;50.848;3.272;2024-02-15T11:22:59;21.60;99.90
21035;DHT22;10676;50.848;3.272;2024-02-15T11:25:35;21.60;99.90
21035;DHT22;10676;50.848;3.272;2024-02-15T11:30:47;21.90;99.90
21035;DHT22;10676;50.848;3.272;2024-02-15T11:33:32;22.20;99.90
21035;DHT22;10676;50.848;3.272;2024-02-15T11:38:30;22.90;99.90
21035;DHT22;10676;50.848;3.272;2024-02-15T11:46:20;23.30;99.90
21035;DHT22;10676;50.848;3.272;2024-02-15T11:48:46;23.30;99.90
21035;DHT22;10676;50.848;3.272;2024-02-15T11:51:36;23.10;99.90
21035;DHT22;10676;50.848;3.272;2024-02-15T11:57:31;22.70;99.90
21035;DHT22;10676;50.848;3.272;2024-02-15T12:36:19;23.20;99.90
21035;DHT22;10676;50.848;3.272;2024-02-15T12:38:45;23.00;99.90
21035;DHT22;10676;50.848;3.272;2024-02-15T12:41:19;22.90;99.90
21035;DHT22;10676;50.848;3.272;2024-02-15T12:43:46;22.80;99.90
21035;DHT22;10676;50.848;3.272;2024-02-15T12:46:19;22.70;99.90
21035;DHT22;10676;50.848;3.272;2024-02-15T12:48:45;22.90;99.90
21035;DHT22;10676;50.848;3.272;2024-02-15T12:51:14;23.00;99.90
21035;DHT22;10676;50.848;3.272;2024-02-15T12:53:41;23.20;99.90
21035;DHT22;10676;50.848;3.272;2024-02-15T12:56:09;23.40;99.90
21035;DHT22;10676;50.848;3.272;2024-02-15T12:58:35;23.60;99.90
21035;DHT22;10676;50.848;3.272;2024-02-15T13:01:01;23.90;99.90
21035;DHT22;10676;50.848;3.272;2024-02-15T13:03:27;24.00;99.90
21035;DHT22;10676;50.848;3.272;2024-02-15T13:05:53;24.10;99.90
21035;DHT22;10676;50.848;3.272;2024-02-15T13:08:19;24.10;99.90
21035;DHT22;10676;50.848;3.272;2024-02-15T13:10:45;24.10;99.90
21035;DHT22;10676;50.848;3.272;2024-02-15T13:13:12;24.00;99.90
21035;DHT22;10676;50.848;3.272;2024-02-15T13:15:39;24.00;99.90
21035;DHT22;10676;50.848;3.272;2024-02-15T13:18:06;23.90;99.90
21035;DHT22;10676;50.848;3.272;2024-02-15T13:20:35;23.80;99.90
21035;DHT22;10676;50.848;3.272;2024-02-15T13:23:10;23.70;99.90
21035;DHT22;10676;50.848;3.272;2024-02-15T13:25:56;23.50;99.90
21035;DHT22;10676;50.848;3.272;2024-02-15T13:28:29;23.30;99.90
21035;DHT22;10676;50.848;3.272;2024-02-15T13:30:55;23.20;99.90
21035;DHT22;10676;50.848;3.272;2024-02-15T13:33:22;23.10;99.90
21035;DHT22;10676;50.848;3.272;2024-02-15T13:35:47;22.90;99.90
21035;DHT22;10676;50.848;3.272;2024-02-15T13:38:15;22.80;99.90
21035;DHT22;10676;50.848;3.272;2024-02-15T13:40:48;22.70;99.90
21035;DHT22;10676;50.848;3.272;2024-02-15T13:43:17;22.70;99.90
21035;DHT22;10676;50.848;3.272;2024-02-15T13:45:44;22.70;99.90
21035;DHT22;10676;50.848;3.272;2024-02-15T13:48:10;22.70;99.90
21035;DHT22;10676;50.848;3.272;2024-02-15T13:50:38;22.60;99.90
21035;DHT22;10676;50.848;3.272;2024-02-15T13:53:05;22.60;99.90
21035;DHT22;10676;50.848;3.272;2024-02-15T13:55:31;22.60;99.90
21035;DHT22;10676;50.848;3.272;2024-02-15T13:57:58;22.50;99.90
21035;DHT22;10676;50.848;3.272;2024-02-15T14:00:25;22.40;99.90
21035;DHT22;10676;50.848;3.272;2024-02-15T14:02:59;22.40;99.90
21035;DHT22;10676;50.848;3.272;2024-02-15T14:05:26;22.40;99.90
21035;DHT22;10676;50.848;3.272;2024-02-15T14:08:03;22.30;99.90
21035;DHT22;10676;50.848;3.272;2024-02-15T14:10:34;22.30;99.90
21035;DHT22;10676;50.848;3.272;2024-02-15T14:13:03;22.20;99.90
21035;DHT22;10676;50.848;3.272;2024-02-15T14:15:37;22.10;99.90
21035;DHT22;10676;50.848;3.272;2024-02-15T14:18:10;22.00;99.90
21035;DHT22;10676;50.848;3.272;2024-02-15T14:20:36;21.90;99.90
21035;DHT22;10676;50.848;3.272;2024-02-15T14:23:03;21.90;99.90
21035;DHT22;10676;50.848;3.272;2024-02-15T14:25:32;21.80;99.90
21035;DHT22;10676;50.848;3.272;2024-02-15T14:27:58;21.70;99.90
21035;DHT22;10676;50.848;3.272;2024-02-15T14:30:24;21.60;99.90
21035;DHT22;10676;50.848;3.272;2024-02-15T14:33:09;21.60;99.90
21035;DHT22;10676;50.848;3.272;2024-02-15T14:35:40;21.50;99.90
21035;DHT22;10676;50.848;3.272;2024-02-15T14:38:07;21.50;99.90
21035;DHT22;10676;50.848;3.272;2024-02-15T14:40:45;21.50;99.90
21035;DHT22;10676;50.848;3.272;2024-02-15T14:43:14;21.40;99.90
21035;DHT22;10676;50.848;3.272;2024-02-15T14:45:41;21.40;99.90
21035;DHT22;10676;50.848;3.272;2024-02-15T14:48:07;21.30;99.90
21035;DHT22;10676;50.848;3.272;2024-02-15T14:50:38;21.20;99.90
21035;DHT22;10676;50.848;3.272;2024-02-15T14:53:04;21.10;99.90
21035;DHT22;10676;50.848;3.272;2024-02-15T14:55:30;21.00;99.90
21035;DHT22;10676;50.848;3.272;2024-02-15T14:57:57;20.90;99.90
21035;DHT22;10676;50.848;3.272;2024-02-15T15:00:25;20.80;99.90
21035;DHT22;10676;50.848;3.272;2024-02-15T15:02:52;20.60;99.90
21035;DHT22;10676;50.848;3.272;2024-02-15T15:05:18;20.50;99.90
21035;DHT22;10676;50.848;3.272;2024-02-15T15:08:02;20.40;99.90
21035;DHT22;10676;50.848;3.272;2024-02-15T15:10:47;20.20;99.90
21035;DHT22;10676;50.848;3.272;2024-02-15T15:13:32;20.10;99.90
21035;DHT22;10676;50.848;3.272;2024-02-15T15:15:59;20.00;99.90
21035;DHT22;10676;50.848;3.272;2024-02-15T15:18:25;19.90;99.90
21035;DHT22;10676;50.848;3.272;2024-02-15T15:20:50;19.80;99.90
21035;DHT22;10676;50.848;3.272;2024-02-15T15:23:16;19.70;99.90
21035;DHT22;10676;50.848;3.272;2024-02-15T15:25:42;19.60;99.90
21035;DHT22;10676;50.848;3.272;2024-02-15T15:28:08;19.50;99.90
21035;DHT22;10676;50.848;3.272;2024-02-15T15:30:34;19.40;99.90
21035;DHT22;10676;50.848;3.272;2024-02-15T15:33:00;19.20;99.90
21035;DHT22;10676;50.848;3.272;2024-02-15T15:35:26;19.10;99.90
21035;DHT22;10676;50.848;3.272;2024-02-15T15:37:57;19.00;99.90
21035;DHT22;10676;50.848;3.272;2024-02-15T15:40:23;18.90;99.90
21035;DHT22;10676;50.848;3.272;2024-02-15T15:42:49;18.80;99.90
21035;DHT22;10676;50.848;3.272;2024-02-15T15:45:15;18.70;99.90
21035;DHT22;10676;50.848;3.272;2024-02-15T15:47:41;18.60;99.90
21035;DHT22;10676;50.848;3.272;2024-02-15T15:50:10;18.40;99.90
21035;DHT22;10676;50.848;3.272;2024-02-15T15:52:37;18.30;99.90
21035;DHT22;10676;50.848;3.272;2024-02-15T15:55:04;18.20;99.90
21035;DHT22;10676;50.848;3.272;2024-02-15T15:57:30;18.10;99.90
21035;DHT22;10676;50.848;3.272;2024-02-15T15:59:57;18.00;99.90
21035;DHT22;10676;50.848;3.272;2024-02-15T16:02:22;17.90;99.90
21035;DHT22;10676;50.848;3.272;2024-02-15T16:04:48;17.80;99.90
21035;DHT22;10676;50.848;3.272;2024-02-15T16:07:15;17.70;99.90
21035;DHT22;10676;50.848;3.272;2024-02-15T16:09:43;17.60;99.90
21035;DHT22;10676;50.848;3.272;2024-02-15T16:12:12;17.50;99.90
21035;DHT22;10676;50.848;3.272;2024-02-15T16:14:49;17.40;99.90
21035;DHT22;10676;50.848;3.272;2024-02-15T16:17:14;17.30;99.90
21035;DHT22;10676;50.848;3.272;2024-02-15T16:19:40;17.20;99.90
21035;DHT22;10676;50.848;3.272;2024-02-15T16:22:07;17.10;99.90
21035;DHT22;10676;50.848;3.272;2024-02-15T16:24:33;17.10;99.90
21035;DHT22;10676;50.848;3.272;2024-02-15T16:27:03;17.00;99.90
21035;DHT22;10676;50.848;3.272;2024-02-15T16:29:36;16.90;99.90
21035;DHT22;10676;50.848;3.272;2024-02-15T16:32:01;16.80;99.90
21035;DHT22;10676;50.848;3.272;2024-02-15T16:34:30;16.80;99.90
21035;DHT22;10676;50.848;3.272;2024-02-15T16:36:56;16.70;99.90
21035;DHT22;10676;50.848;3.272;2024-02-15T16:39:21;16.70;99.90
21035;DHT22;10676;50.848;3.272;2024-02-15T16:41:47;16.60;99.90
21035;DHT22;10676;50.848;3.272;2024-02-15T16:44:13;16.50;99.90
21035;DHT22;10676;50.848;3.272;2024-02-15T16:46:39;16.50;99.90
21035;DHT22;10676;50.848;3.272;2024-02-15T16:49:05;16.40;99.90